Johnson, New York
Current Conditions -  °F | °C
As of 11:53 PM on Saturday 22 Nov 2014 (Local Time) from KFWN Reporting Station
Broken Clouds Broken Clouds  
Wind Chill: 33°   Ceiling: 12000
Heat Index: 38°   Visibility: 10mi
Dew Point: 20°   Wind: 7mph
Humidity: 48%   Direction: 220°SW
Pressure: 30.16"   Gusts: NA
Location:  41.37°N, 74.51°W
Report Text: KFWN 230453Z AUTO 22006KT 10SM BKN120 03/M07 A3016 RMK AO2 SLP217 T00331067 400501111
Loading
Personal Weather Stations






























Interactive Weather Map New forecast layout! Learn more

10-Day Weather Forecast

Advertisements
Track Severe Weather on mobile